Chignik Lake, Alaska
Current Conditions -  °F | °C
As of 11:36 PM on Friday 28 Nov 2014 (Local Time) from PAJC Reporting Station
Clear Clear  
Wind Chill: 32°   Ceiling: Unl
Heat Index: 39°   Visibility: 10mi
Dew Point: 28°   Wind: 13mph
Humidity: 65%   Direction: 250°WSW
Pressure: 30.14"   Gusts: 20mph
Location:  56.26°N, 158.77°W
Report Text: PAJC 290836Z AUTO 25011G17KT 10SM CLR 04/M02 A3014 RMK AO1
Loading
Personal Weather Stations






























Interactive Weather Map New forecast layout! Learn more

10-Day Weather Forecast

Advertisements
Track Severe Weather on mobile